ICT,Max TemperatureF,Mean TemperatureF,Min TemperatureF,Max Dew PointF,MeanDew PointF,Min DewpointF,Max Humidity, Mean Humidity, Min Humidity, Max Sea Level PressureIn, Mean Sea Level PressureIn, Min Sea Level PressureIn, Max VisibilityMiles, Mean VisibilityMiles, Min VisibilityMiles, Max Wind SpeedMPH, Mean Wind SpeedMPH, Max Gust SpeedMPH,PrecipitationIn, CloudCover, Events, WindDirDegrees
2014-4-1,89,82,75,77,75,73,94,81,62,29.86,29.78,29.71,6,4,1,8,2,,0.00,6,Rain,236
2014-4-2,98,86,75,79,74,70,100,75,39,29.83,29.78,29.68,6,5,2,12,3,,0.00,5,Rain-Thunderstorm,215
2014-4-3,91,84,77,77,75,73,94,76,59,29.86,29.81,29.77,5,5,2,9,3,,0.00,6,Thunderstorm,94
2014-4-4,91,82,73,75,73,72,94,82,55,29.92,29.84,29.77,6,4,2,21,4,29,0.00,5,Rain-Thunderstorm,294
2014-4-5,86,80,73,75,73,66,100,82,65,29.95,29.90,29.83,6,4,2,13,3,,0.00,7,,302
2014-4-6,98,86,73,75,71,66,94,68,37,29.95,29.88,29.80,6,5,2,13,5,,0.00,4,Rain-Thunderstorm,17
2014-4-7,93,83,73,77,73,70,94,78,52,29.98,29.90,29.83,6,5,2,14,4,26,0.00,5,Rain-Thunderstorm,234
2014-4-8,93,84,75,75,74,72,94,73,49,29.98,29.88,29.80,6,6,3,10,2,,0.00,4,,216
2014-4-9,95,84,73,75,73,72,94,69,49,29.92,29.84,29.77,6,5,2,10,3,,0.00,4,Rain-Thunderstorm,264
2014-4-10,93,84,75,75,73,70,94,70,49,29.92,29.86,29.77,6,4,1,9,4,,0.00,6,Rain-Thunderstorm,221
2014-4-11,93,83,73,75,73,70,94,73,49,29.92,29.84,29.74,6,5,2,10,3,,0.00,4,Thunderstorm,290
2014-4-12,93,83,73,75,72,70,94,67,46,29.89,29.83,29.74,6,5,3,10,4,,0.00,5,Thunderstorm,227
2014-4-13,93,84,75,75,73,70,94,64,49,29.92,29.83,29.77,6,5,2,9,4,14,0.00,5,Thunderstorm,264
2014-4-14,98,86,73,75,74,72,94,76,42,29.89,29.84,29.77,6,4,1,13,4,22,0.00,5,Rain-Thunderstorm,302
2014-4-15,93,83,73,77,73,70,94,72,49,29.92,29.84,29.74,6,5,2,9,4,,0.00,2,Rain-Thunderstorm,27
2014-4-16,93,82,71,75,73,70,94,70,46,29.89,29.81,29.74,6,5,3,10,3,,0.00,2,Rain-Thunderstorm,212
2014-4-17,95,84,73,75,73,72,94,73,49,29.86,29.80,29.71,6,6,3,10,4,,0.00,3,Rain-Thunderstorm,331
2014-4-18,95,85,75,75,74,72,94,72,49,29.89,29.83,29.74,6,5,1,10,3,,0.00,3,Rain-Thunderstorm,203
2014-4-19,96,84,73,79,75,70,94,76,41,29.86,29.79,29.71,6,5,2,10,4,,0.00,3,Fog-Rain-Thunderstorm,87
2014-4-20,93,84,75,79,75,72,94,71,52,29.83,29.78,29.71,6,5,1,10,4,,0.00,3,Thunderstorm,202
2014-4-21,93,84,75,77,76,73,94,72,52,29.86,29.81,29.74,6,6,3,12,3,,0.00,2,Thunderstorm,198
2014-4-22,95,86,77,77,76,75,94,76,53,29.89,29.84,29.74,6,4,1,40,4,,0.00,3,Fog-Thunderstorm,205
2014-4-23,96,86,75,79,75,72,94,69,44,29.89,29.79,29.71,6,5,2,8,3,,0.00,3,Rain-Thunderstorm,245
2014-4-24,95,85,75,79,76,73,94,74,53,29.86,29.80,29.74,6,5,2,9,3,,0.00,2,,196
2014-4-25,96,86,75,77,75,73,94,73,50,29.86,29.79,29.74,6,5,2,10,3,,0.00,2,Rain-Thunderstorm,170
2014-4-26,95,85,75,79,75,73,94,69,49,29.86,29.79,29.71,6,6,2,8,3,,0.00,1,,340
2014-4-27,96,86,77,79,77,73,94,73,49,29.89,29.81,29.74,6,5,3,10,4,,0.00,2,Thunderstorm,187
2014-4-28,95,85,75,79,75,70,94,67,46,29.89,29.83,29.74,6,5,2,8,3,,0.00,3,,128
2014-4-29,95,85,75,79,77,73,94,72,56,29.89,29.81,29.74,6,5,3,7,3,,0.00,5,,201
2014-4-30,96,86,75,77,75,72,94,71,44,29.86,29.80,29.74,6,5,2,10,3,,0.00,4,Thunderstorm,241